NZAANZQN

Guest
Details From NZAA - Auckland International
To NZQN - Queenstown
Flight Number -
Tags Decoded
Created
Modified
Stats Distance 560 nm / 1,036 km
Max Altitude 0 ft / 0 m
Waypoints 4
Social Downloads 0
Likes 0
Share VATSIM

Download

Looking for another format? Having issues loading an existing format? Contact us
Advertisement - Login to hide

Notes

Decoded

Route

NZAA AA DUBON SH

ID Type Via Altitude Latitude Longitude Leg Dist Tot Dist Heading (true) Name
O NZAA APT - 0 ft / 0 m -37.01438˚ 174.77090˚ - 0 nm - -
AA VOR - 0 ft / 0 m -37.00464˚ 174.81364˚ 2 nm 2 nm 74° / 74° AUCKLAND VOR-DME
DUBON FIX - 0 ft / 0 m -43.50003˚ 170.97097˚ 427 nm 430 nm 203° / 206° -
O SH VOR - 0 ft / 0 m -44.98411˚ 168.78264˚ 129 nm 559 nm 226° / 227° SLOPE HILL VOR-DME

Altitude Profile

Advertisement - Login to hide

Weather


0- 5 10 15 20 25 30 35+ Temperature / ° C

Clouds and Precipitation
Forecast for 2018-05-26 18:00 UTC. Updated 5 hours ago

Ground ~20,000 ft ~40,000 ft Winds

NZAA

Details ICAO NZAA (AKL)
Name Auckland International
Region New Zealand and Antarctica
Timezone Pacific/Auckland (UTC+12.0)
Stats Elevation 23 ft / 7 m (AMSL)
Location -37.010794° 174.787331°
Runways 2
Magnetic Variation 19.857° E

METAR

NZAA 262130Z AUTO 24020KT 9999 FEW023/// SCT060/// 15/12 Q1011 TEMPO 4000 SHRA FEW020TCU

Decode

TAF

TAF AMD NZAA 262107Z 2621/2718 25015G25KT 9999 -SHRA FEW018 BKN035 TEMPO 2622/2707 4000 SHRA SCT020TCU BECMG 2705/2707 24015KT TEMPO 2707/2710 6000 SHRA BECMG 2709/2711 18005KT

Decode

Departure Runways

ID Width Length Bearing (true) Bearing (mag) Surface Threshold Offset Overrun Length
05L 157 ft / 48 m 10,844 ft / 3,305 m 70.91° 51.05° Concrete 1,240 ft / 378 m 460 ft / 140 m
05R 152 ft / 46 m 12,085 ft / 3,684 m 70.96° 51.10° Concrete 1,270 ft / 387 m 0 ft / 0 m
23L 152 ft / 46 m 12,085 ft / 3,684 m 250.94° 231.08° Concrete 0 ft / 0 m 0 ft / 0 m
23R 157 ft / 48 m 10,844 ft / 3,305 m 250.89° 231.03° Concrete 1,060 ft / 323 m 0 ft / 0 m

NZQN

Details ICAO NZQN (ZQN)
Name Queenstown
Region New Zealand and Antarctica
Timezone Pacific/Auckland (UTC+12.0)
Stats Elevation 1,171 ft / 357 m (AMSL)
Location -45.020546° 168.745402°
Runways 3
Magnetic Variation 24.450° E

METAR

Not found

TAF

TAF AMD NZQN 261815Z 2618/2712 19015G25KT 9999 -SHRA BKN030 TEMPO 2618/2623 6000 SHRA BECMG 2707/2709 19010KT

Decode

Destination Runways

ID Width Length Bearing (true) Bearing (mag) Surface Threshold Offset Overrun Length
05L 121 ft / 37 m 2,516 ft / 767 m 75.96° 51.51° Grass 0 ft / 0 m 0 ft / 0 m
05R 116 ft / 35 m 6,056 ft / 1,846 m 75.96° 51.51° Asphalt 367 ft / 112 m 0 ft / 0 m
14 167 ft / 51 m 3,157 ft / 962 m 161.16° 136.71° Grass 33 ft / 10 m 0 ft / 0 m
23L 116 ft / 35 m 6,056 ft / 1,846 m 255.94° 231.49° Asphalt 187 ft / 57 m 0 ft / 0 m
23R 121 ft / 37 m 2,516 ft / 767 m 255.96° 231.51° Grass 0 ft / 0 m 0 ft / 0 m
32 167 ft / 51 m 3,157 ft / 962 m 341.16° 316.71° Grass 66 ft / 20 m 0 ft / 0 m

Popular Alternatives